createdAt,value
2023-02-17T00:01:59.535Z,100961.94
2023-02-17T00:05:53.038Z,100956.94
2023-02-17T00:09:42.534Z,100951.64
2023-02-17T00:13:36.361Z,100947.48
2023-02-17T00:17:31.473Z,100938.16
2023-02-17T00:21:25.035Z,100939.23
2023-02-17T00:25:20.046Z,100935.60
2023-02-17T00:29:13.675Z,100927.29
2023-02-17T00:33:15.051Z,100923.45
2023-02-17T00:37:08.877Z,100916.86
2023-02-17T00:41:00.702Z,100908.73
2023-02-17T00:44:53.968Z,100903.96
2023-02-17T00:48:47.637Z,100901.35
2023-02-17T00:52:37.180Z,100891.26
2023-02-17T00:56:30.999Z,100886.96
2023-02-17T01:00:01.173Z,100880.54
2023-02-17T01:03:52.978Z,100876.47
2023-02-17T01:07:47.169Z,100873.79
2023-02-17T01:11:39.702Z,100867.50
2023-02-17T01:15:31.191Z,100864.32
2023-02-17T01:19:24.566Z,100857.65
2023-02-17T01:23:22.641Z,100856.17
2023-02-17T01:27:13.872Z,100852.86
2023-02-17T01:31:11.698Z,100854.94
2023-02-17T01:35:04.034Z,100847.70
2023-02-17T01:39:02.042Z,100842.52
2023-02-17T01:42:54.234Z,100836.38
2023-02-17T01:46:47.590Z,100832.40
2023-02-17T01:50:39.847Z,100831.97
2023-02-17T01:54:35.984Z,100824.16
2023-02-17T01:58:27.987Z,100820.25
2023-02-17T02:02:21.649Z,100819.02
2023-02-17T02:05:53.824Z,100811.76
2023-02-17T02:09:48.919Z,100816.10
2023-02-17T02:13:43.750Z,100813.95
2023-02-17T02:17:37.050Z,100810.15
2023-02-17T02:21:30.849Z,100807.25
2023-02-17T02:25:27.175Z,100805.52
2023-02-17T02:29:20.807Z,100804.71
2023-02-17T02:33:12.940Z,100802.05
2023-02-17T02:37:04.470Z,100808.14
2023-02-17T02:40:59.096Z,100809.86
2023-02-17T02:44:50.609Z,100807.91
2023-02-17T02:48:42.734Z,100805.02
2023-02-17T02:52:34.142Z,100798.19
2023-02-17T02:56:26.047Z,100799.67
2023-02-17T03:00:19.343Z,100802.13
2023-02-17T03:04:14.833Z,100797.36
2023-02-17T03:08:09.252Z,100798.48
2023-02-17T03:12:04.752Z,100790.63
2023-02-17T03:15:59.215Z,100796.32
2023-02-17T03:19:54.618Z,100791.22
2023-02-17T03:23:47.790Z,100785.42
2023-02-17T03:27:43.630Z,100783.27
2023-02-17T03:31:37.190Z,100781.05
2023-02-17T03:35:29.328Z,100780.89
2023-02-17T03:39:20.400Z,100781.64
2023-02-17T03:43:12.529Z,100781.71
2023-02-17T03:47:04.025Z,100782.41
2023-02-17T03:50:56.229Z,100782.45
2023-02-17T03:54:58.742Z,100786.34
2023-02-17T03:58:51.261Z,100784.04
2023-02-17T04:02:50.705Z,100782.23
2023-02-17T04:06:39.862Z,100777.02
2023-02-17T04:10:29.208Z,100768.87
2023-02-17T04:14:14.639Z,100765.35
2023-02-17T04:18:05.865Z,100766.92
2023-02-17T04:22:05.472Z,100771.02
2023-02-17T04:26:05.989Z,100773.05
2023-02-17T04:30:04.381Z,100771.48
2023-02-17T04:34:03.818Z,100765.13
2023-02-17T04:38:01.213Z,100755.02
2023-02-17T04:42:00.991Z,100757.84
2023-02-17T04:45:56.486Z,100751.47
2023-02-17T04:49:42.077Z,100748.60
2023-02-17T04:53:27.520Z,100742.30
2023-02-17T04:57:13.216Z,100744.02
2023-02-17T05:01:05.483Z,100751.98
2023-02-17T05:05:04.956Z,100751.80
2023-02-17T05:09:03.057Z,100755.41
2023-02-17T05:13:02.910Z,100756.73
2023-02-17T05:17:02.380Z,100758.84
2023-02-17T05:21:00.280Z,100760.48
2023-02-17T05:24:58.586Z,100763.58
2023-02-17T05:28:44.040Z,100770.82
2023-02-17T05:32:29.665Z,100770.84
2023-02-17T05:36:15.022Z,100768.42
2023-02-17T05:40:00.185Z,100766.59
2023-02-17T05:43:49.499Z,100769.61
2023-02-17T05:47:41.098Z,100771.48
2023-02-17T05:51:33.547Z,100768.62
2023-02-17T05:55:24.722Z,100772.13
2023-02-17T05:59:25.098Z,100768.63
2023-02-17T06:03:23.402Z,100771.90
2023-02-17T06:07:24.068Z,100769.88
2023-02-17T06:11:21.204Z,100764.55
2023-02-17T06:15:21.116Z,100770.48
2023-02-17T06:19:18.421Z,100764.54
2023-02-17T06:23:17.980Z,100767.98
2023-02-17T06:27:03.954Z,100770.57
2023-02-17T06:30:49.148Z,100772.38
2023-02-17T06:34:34.499Z,100773.88
2023-02-17T06:38:19.747Z,100774.10
2023-02-17T06:42:04.985Z,100780.55
2023-02-17T06:45:51.491Z,100788.71
2023-02-17T06:49:37.024Z,100795.94
2023-02-17T06:53:38.089Z,100787.17
2023-02-17T06:57:35.346Z,100791.34
2023-02-17T07:01:35.285Z,100792.99
2023-02-17T07:05:33.604Z,100795.68
2023-02-17T07:09:34.069Z,100795.36
2023-02-17T07:13:32.473Z,100794.23
2023-02-17T07:17:32.171Z,100800.73
2023-02-17T07:21:29.540Z,100802.55
2023-02-17T07:25:30.217Z,100805.73
2023-02-17T07:29:28.555Z,100814.00
2023-02-17T07:33:28.160Z,100811.41
2023-02-17T07:37:29.699Z,100814.70
2023-02-17T07:41:30.265Z,100816.75
2023-02-17T07:45:28.479Z,100816.64
2023-02-17T07:49:29.301Z,100819.66
2023-02-17T07:53:27.578Z,100819.32
2023-02-17T07:57:28.275Z,100823.32
2023-02-17T08:01:26.393Z,100825.73
2023-02-17T08:05:29.526Z,100828.91
2023-02-17T08:09:29.306Z,100833.04
2023-02-17T08:13:25.385Z,100835.73
2023-02-17T08:17:25.922Z,100840.35
2023-02-17T08:21:21.399Z,100835.02
2023-02-17T08:25:21.460Z,100837.14
2023-02-17T08:29:19.847Z,100844.67
2023-02-17T08:33:19.304Z,100851.08
2023-02-17T08:37:15.454Z,100851.85
2023-02-17T08:41:14.868Z,100850.45
2023-02-17T08:45:11.651Z,100854.20
2023-02-17T08:49:11.175Z,100856.55
2023-02-17T08:53:06.838Z,100864.25
2023-02-17T08:57:06.743Z,100868.81
2023-02-17T09:01:02.732Z,100870.98
2023-02-17T09:05:03.179Z,100870.67
2023-02-17T09:08:59.653Z,100877.95
2023-02-17T09:12:59.837Z,100872.58
2023-02-17T09:16:55.712Z,100875.13
2023-02-17T09:20:58.315Z,100878.77
2023-02-17T09:24:53.425Z,100881.69
2023-02-17T09:28:53.538Z,100878.84
2023-02-17T09:32:49.474Z,100880.64
2023-02-17T09:36:50.614Z,100876.36
2023-02-17T09:40:46.845Z,100870.63
2023-02-17T09:44:47.154Z,100874.61
2023-02-17T09:48:44.072Z,100871.02
2023-02-17T09:52:43.704Z,100873.36
2023-02-17T09:56:39.843Z,100871.73
2023-02-17T10:00:33.786Z,100870.27
2023-02-17T10:04:29.077Z,100862.99
2023-02-17T10:08:22.772Z,100870.42
2023-02-17T10:12:14.924Z,100870.23
2023-02-17T10:16:09.266Z,100871.64
2023-02-17T10:20:09.660Z,100871.84
2023-02-17T10:24:03.180Z,100873.64
2023-02-17T10:27:58.429Z,100881.09
2023-02-17T10:31:51.846Z,100883.35
2023-02-17T10:35:24.613Z,100882.61
2023-02-17T10:39:16.874Z,100884.85
2023-02-17T10:43:10.421Z,100889.80
2023-02-17T10:47:02.188Z,100891.63
2023-02-17T10:50:57.477Z,100885.95
2023-02-17T10:54:48.910Z,100879.58
2023-02-17T10:58:43.328Z,100878.95
2023-02-17T11:02:38.983Z,100872.33
2023-02-17T11:06:30.847Z,100872.34
2023-02-17T11:10:28.394Z,100874.93
2023-02-17T11:14:20.970Z,100880.97
2023-02-17T11:18:14.374Z,100883.10
2023-02-17T11:22:05.615Z,100885.70
2023-02-17T11:26:03.807Z,100885.52
2023-02-17T11:29:55.654Z,100888.69
2023-02-17T11:33:56.986Z,100892.94
2023-02-17T11:37:51.555Z,100896.06
2023-02-17T11:41:50.711Z,100896.73
2023-02-17T11:45:42.128Z,100897.70
2023-02-17T11:49:36.602Z,100892.70
2023-02-17T11:52:33.592Z,100894.61
2023-02-17T11:55:28.366Z,100892.27
2023-02-17T11:58:44.850Z,100898.23
2023-02-17T12:01:54.612Z,100899.68
2023-02-17T12:05:02.102Z,100900.50
2023-02-17T12:08:28.748Z,100899.75
2023-02-17T12:11:32.379Z,100903.24
2023-02-17T12:14:43.405Z,100900.31
2023-02-17T12:18:05.189Z,100902.40
2023-02-17T12:21:09.210Z,100901.98
2023-02-17T12:24:24.371Z,100900.69
2023-02-17T12:27:19.131Z,100899.82
2023-02-17T12:30:17.361Z,100899.81
2023-02-17T12:33:16.006Z,100896.98
2023-02-17T12:36:06.827Z,100896.84
2023-02-17T12:38:59.232Z,100898.90
2023-02-17T12:41:54.064Z,100900.62
2023-02-17T12:44:49.994Z,100900.58
2023-02-17T12:47:46.593Z,100909.45
2023-02-17T12:50:50.514Z,100906.42
2023-02-17T12:53:53.013Z,100904.33
2023-02-17T12:56:48.352Z,100909.98
2023-02-17T12:59:45.066Z,100914.13
2023-02-17T13:02:34.586Z,100914.41
2023-02-17T13:05:27.004Z,100920.41
2023-02-17T13:08:33.714Z,100922.20
2023-02-17T13:11:31.688Z,100917.81
2023-02-17T13:14:28.331Z,100921.11
2023-02-17T13:17:31.329Z,100923.00
2023-02-17T13:20:20.193Z,100924.38
2023-02-17T13:23:12.236Z,100919.30
2023-02-17T13:26:19.478Z,100919.83
2023-02-17T13:29:32.355Z,100922.14
2023-02-17T13:32:26.408Z,100923.32
2023-02-17T13:35:29.540Z,100925.73
2023-02-17T13:38:31.502Z,100924.83
2023-02-17T13:41:20.299Z,100925.46
2023-02-17T13:44:25.841Z,100929.04
2023-02-17T13:47:17.347Z,100926.45
2023-02-17T13:50:07.193Z,100930.08
2023-02-17T13:52:56.271Z,100934.12
2023-02-17T13:55:45.031Z,100930.19
2023-02-17T13:58:38.936Z,100935.34
2023-02-17T14:01:28.912Z,100933.20
2023-02-17T14:04:38.207Z,100938.70
2023-02-17T14:07:26.939Z,100935.17
2023-02-17T14:10:19.248Z,100939.44
2023-02-17T14:13:10.997Z,100939.56
2023-02-17T14:16:00.310Z,100942.68
2023-02-17T14:18:49.374Z,100943.27
2023-02-17T14:21:43.944Z,100940.45
2023-02-17T14:24:34.685Z,100942.08
2023-02-17T14:27:23.765Z,100944.52
2023-02-17T14:30:30.357Z,100945.39
2023-02-17T14:33:25.460Z,100941.26
2023-02-17T14:36:27.081Z,100946.86
2023-02-17T14:39:16.598Z,100949.83
2023-02-17T14:42:06.140Z,100944.59
2023-02-17T14:44:55.234Z,100947.14
2023-02-17T14:47:45.985Z,100954.88
2023-02-17T14:50:35.356Z,100955.46
2023-02-17T14:53:28.136Z,100950.91
2023-02-17T14:56:34.354Z,100956.50
2023-02-17T14:59:23.274Z,100961.06
2023-02-17T15:02:19.355Z,100965.48
2023-02-17T15:05:08.285Z,100966.39
2023-02-17T15:07:58.603Z,100969.73
2023-02-17T15:10:49.622Z,100975.98
2023-02-17T15:13:38.511Z,100977.09
2023-02-17T15:16:33.184Z,100982.57
2023-02-17T15:19:22.104Z,100987.60
2023-02-17T15:22:16.535Z,100986.80
2023-02-17T15:25:14.498Z,100993.34
2023-02-17T15:28:04.229Z,100996.13
2023-02-17T15:30:54.856Z,100994.41
2023-02-17T15:33:44.132Z,100996.21
2023-02-17T15:36:33.152Z,100998.56
2023-02-17T15:39:22.517Z,101008.91
2023-02-17T15:42:14.316Z,101016.63
2023-02-17T15:45:03.372Z,101016.45
2023-02-17T15:47:58.216Z,101015.63
2023-02-17T15:50:47.429Z,101013.50
2023-02-17T15:53:37.141Z,101010.54
2023-02-17T15:56:27.823Z,101013.73
2023-02-17T15:59:19.575Z,101012.21
2023-02-17T16:02:22.449Z,101016.78
2023-02-17T16:05:14.641Z,101017.92
2023-02-17T16:08:04.274Z,101011.65
2023-02-17T16:10:55.720Z,101010.88
2023-02-17T16:13:45.399Z,101009.27
2023-02-17T16:16:34.238Z,101010.10
2023-02-17T16:19:23.362Z,101006.98
2023-02-17T16:22:12.356Z,101012.68
2023-02-17T16:25:21.509Z,101009.12
2023-02-17T16:28:20.665Z,101009.96
2023-02-17T16:31:10.716Z,101011.45
2023-02-17T16:34:00.517Z,101008.74
2023-02-17T16:36:51.253Z,101007.84
2023-02-17T16:39:40.211Z,101006.60
2023-02-17T16:42:29.322Z,101002.40
2023-02-17T16:45:19.933Z,101000.59
2023-02-17T16:48:09.052Z,100994.77
2023-02-17T16:51:03.154Z,100997.40
2023-02-17T16:53:52.625Z,101002.86
2023-02-17T16:56:48.530Z,101002.16
2023-02-17T16:59:40.329Z,100998.14
2023-02-17T17:02:29.336Z,100998.48
2023-02-17T17:05:19.839Z,101000.48
2023-02-17T17:08:16.584Z,101001.39
2023-02-17T17:11:06.099Z,101002.80
2023-02-17T17:13:55.483Z,101002.67
2023-02-17T17:16:51.165Z,101000.60
2023-02-17T17:19:40.329Z,100999.87
2023-02-17T17:22:29.528Z,101004.67
2023-02-17T17:25:19.176Z,101000.27
2023-02-17T17:28:08.647Z,100996.39
2023-02-17T17:30:57.513Z,101000.13
2023-02-17T17:33:48.553Z,101001.77
2023-02-17T17:36:46.654Z,101001.28
2023-02-17T17:39:40.240Z,100998.93
2023-02-17T17:42:29.355Z,100995.09
2023-02-17T17:45:19.382Z,100991.02
2023-02-17T17:48:13.976Z,100981.45
2023-02-17T17:51:03.535Z,100984.05
2023-02-17T17:53:53.033Z,100982.27
2023-02-17T17:56:43.230Z,100981.86
2023-02-17T17:59:34.072Z,100979.16
2023-02-17T18:02:25.800Z,100980.48
2023-02-17T18:05:14.754Z,100981.27
2023-02-17T18:08:04.210Z,100980.14
2023-02-17T18:10:53.238Z,100976.15
2023-02-17T18:13:44.187Z,100972.70
2023-02-17T18:16:33.367Z,100966.83
2023-02-17T18:19:25.080Z,100956.16
2023-02-17T18:22:14.524Z,100959.80
2023-02-17T18:25:08.994Z,100959.02
2023-02-17T18:27:58.225Z,100960.07
2023-02-17T18:30:47.427Z,100957.77
2023-02-17T18:33:38.077Z,100960.65
2023-02-17T18:36:27.336Z,100956.66
2023-02-17T18:39:18.333Z,100959.48
2023-02-17T18:42:07.229Z,100959.79
2023-02-17T18:44:56.866Z,100959.00
2023-02-17T18:47:46.458Z,100962.72
2023-02-17T18:50:36.058Z,100959.62
2023-02-17T18:53:24.950Z,100961.37
2023-02-17T18:56:17.098Z,100960.35
2023-02-17T18:59:06.083Z,100962.65
2023-02-17T19:01:55.047Z,100954.48
2023-02-17T19:04:46.613Z,100950.90
2023-02-17T19:07:35.796Z,100949.83
2023-02-17T19:10:25.126Z,100948.98
2023-02-17T19:13:13.960Z,100946.97
2023-02-17T19:16:08.624Z,100942.40
2023-02-17T19:18:57.932Z,100944.23
2023-02-17T19:21:47.565Z,100941.95
2023-02-17T19:24:37.242Z,100933.97
2023-02-17T19:27:26.045Z,100930.36
2023-02-17T19:30:15.247Z,100927.52
2023-02-17T19:33:08.612Z,100922.20
2023-02-17T19:35:59.682Z,100914.73
2023-02-17T19:38:50.210Z,100909.73
2023-02-17T19:41:39.090Z,100908.48
2023-02-17T19:44:28.069Z,100908.13
2023-02-17T19:47:16.970Z,100903.66
2023-02-17T19:50:06.854Z,100899.36
2023-02-17T19:52:55.811Z,100899.53
2023-02-17T19:55:45.202Z,100897.73
2023-02-17T19:58:36.539Z,100895.85
2023-02-17T20:01:27.448Z,100888.27
2023-02-17T20:04:16.765Z,100885.98
2023-02-17T20:07:07.013Z,100882.32
2023-02-17T20:09:59.415Z,100884.25
2023-02-17T20:12:48.832Z,100881.36
2023-02-17T20:15:37.638Z,100886.34
2023-02-17T20:18:26.840Z,100882.60
2023-02-17T20:21:24.061Z,100879.08
2023-02-17T20:24:14.242Z,100872.88
2023-02-17T20:27:03.464Z,100866.73
2023-02-17T20:29:53.899Z,100858.69
2023-02-17T20:32:42.815Z,100853.64
2023-02-17T20:35:35.522Z,100846.30
2023-02-17T20:38:25.846Z,100839.65
2023-02-17T20:41:16.994Z,100840.05
2023-02-17T20:44:06.510Z,100840.45
2023-02-17T20:46:56.132Z,100831.77
2023-02-17T20:49:45.305Z,100836.93
2023-02-17T20:52:34.375Z,100837.20
2023-02-17T20:55:47.401Z,100835.81
2023-02-17T20:58:40.612Z,100839.07
2023-02-17T21:01:32.362Z,100835.00
2023-02-17T21:04:23.646Z,100828.77
2023-02-17T21:07:12.898Z,100823.63
2023-02-17T21:10:02.506Z,100822.96
2023-02-17T21:12:51.810Z,100817.36
2023-02-17T21:15:45.149Z,100818.45
2023-02-17T21:18:35.874Z,100816.42
2023-02-17T21:21:24.931Z,100812.22
2023-02-17T21:24:14.326Z,100802.36
2023-02-17T21:27:03.314Z,100799.23
2023-02-17T21:29:52.225Z,100793.44
2023-02-17T21:32:41.126Z,100790.89
2023-02-17T21:35:30.210Z,100789.29
2023-02-17T21:38:21.661Z,100782.73
2023-02-17T21:41:13.414Z,100780.73
2023-02-17T21:44:21.607Z,100776.04
2023-02-17T21:47:10.528Z,100773.30
2023-02-17T21:50:01.518Z,100774.24
2023-02-17T21:52:56.863Z,100771.23
2023-02-17T21:55:46.425Z,100766.33
2023-02-17T21:58:35.547Z,100763.06
2023-02-17T22:01:26.194Z,100759.35
2023-02-17T22:04:15.517Z,100753.38
2023-02-17T22:07:04.788Z,100743.58
2023-02-17T22:09:54.033Z,100739.88
2023-02-17T22:12:44.475Z,100737.17
2023-02-17T22:15:34.240Z,100728.79
2023-02-17T22:18:24.433Z,100718.58
2023-02-17T22:21:14.092Z,100712.84
2023-02-17T22:24:03.922Z,100702.64
2023-02-17T22:26:53.168Z,100698.05
2023-02-17T22:29:42.196Z,100688.27
2023-02-17T22:33:36.680Z,100688.35
2023-02-17T22:37:29.388Z,100693.88
2023-02-17T22:41:24.703Z,100689.89
2023-02-17T22:45:19.948Z,100687.23
2023-02-17T22:49:13.291Z,100684.45
2023-02-17T22:53:08.617Z,100671.28
2023-02-17T22:57:05.612Z,100665.11
2023-02-17T23:00:56.701Z,100650.84
2023-02-17T23:04:51.225Z,100632.90
2023-02-17T23:08:43.931Z,100629.48
2023-02-17T23:12:38.000Z,100621.96
2023-02-17T23:16:11.202Z,100620.20
2023-02-17T23:20:02.944Z,100611.35
2023-02-17T23:23:56.495Z,100600.76
2023-02-17T23:27:49.435Z,100596.26
2023-02-17T23:31:43.188Z,100592.84
2023-02-17T23:35:35.415Z,100587.63
2023-02-17T23:39:29.142Z,100591.66
2023-02-17T23:43:20.985Z,100580.70
2023-02-17T23:47:16.998Z,100564.94
2023-02-17T23:51:09.145Z,100562.01
2023-02-17T23:55:04.100Z,100558.13
2023-02-17T23:58:56.207Z,100558.30
